sensor_id;sensor_type;location;lat;lon;timestamp;temperature;humidity
29353;DHT22;16344;50.364;8.944;2023-03-01T00:00:12;1.90;1.00
29353;DHT22;16344;50.364;8.944;2023-03-01T00:02:38;1.90;1.00
29353;DHT22;16344;50.364;8.944;2023-03-01T00:05:04;1.90;1.00
29353;DHT22;16344;50.364;8.944;2023-03-01T00:07:30;1.90;1.00
29353;DHT22;16344;50.364;8.944;2023-03-01T00:09:55;1.90;1.00
29353;DHT22;16344;50.364;8.944;2023-03-01T00:12:21;1.90;1.00
29353;DHT22;16344;50.364;8.944;2023-03-01T00:14:46;1.90;1.00
29353;DHT22;16344;50.364;8.944;2023-03-01T00:17:12;1.90;1.00
29353;DHT22;16344;50.364;8.944;2023-03-01T00:19:37;2.00;1.00
29353;DHT22;16344;50.364;8.944;2023-03-01T00:22:03;1.80;1.00
29353;DHT22;16344;50.364;8.944;2023-03-01T00:24:28;1.90;1.00
29353;DHT22;16344;50.364;8.944;2023-03-01T00:26:54;1.90;1.00
29353;DHT22;16344;50.364;8.944;2023-03-01T00:29:22;1.90;1.00
29353;DHT22;16344;50.364;8.944;2023-03-01T00:31:48;1.90;1.00
29353;DHT22;16344;50.364;8.944;2023-03-01T00:34:13;1.90;1.00
29353;DHT22;16344;50.364;8.944;2023-03-01T00:36:39;1.90;1.00
29353;DHT22;16344;50.364;8.944;2023-03-01T00:39:07;1.90;1.00
29353;DHT22;16344;50.364;8.944;2023-03-01T00:41:34;1.90;1.00
29353;DHT22;16344;50.364;8.944;2023-03-01T00:44:00;1.90;1.00
29353;DHT22;16344;50.364;8.944;2023-03-01T00:46:27;1.90;1.00
29353;DHT22;16344;50.364;8.944;2023-03-01T00:48:53;1.90;1.00
29353;DHT22;16344;50.364;8.944;2023-03-01T00:51:21;2.00;1.00
29353;DHT22;16344;50.364;8.944;2023-03-01T00:53:50;2.10;1.00
29353;DHT22;16344;50.364;8.944;2023-03-01T00:56:16;2.10;1.00
29353;DHT22;16344;50.364;8.944;2023-03-01T00:58:42;2.00;1.00
29353;DHT22;16344;50.364;8.944;2023-03-01T01:01:14;2.00;1.00
29353;DHT22;16344;50.364;8.944;2023-03-01T01:03:56;2.00;1.00
29353;DHT22;16344;50.364;8.944;2023-03-01T01:06:27;2.10;1.00
29353;DHT22;16344;50.364;8.944;2023-03-01T01:08:54;2.00;1.00
29353;DHT22;16344;50.364;8.944;2023-03-01T01:11:21;2.00;1.00
29353;DHT22;16344;50.364;8.944;2023-03-01T01:13:47;2.10;1.00
29353;DHT22;16344;50.364;8.944;2023-03-01T01:16:14;1.90;1.00
29353;DHT22;16344;50.364;8.944;2023-03-01T01:18:40;1.80;1.00
29353;DHT22;16344;50.364;8.944;2023-03-01T01:21:08;1.80;1.00
29353;DHT22;16344;50.364;8.944;2023-03-01T01:23:34;1.80;1.00
29353;DHT22;16344;50.364;8.944;2023-03-01T01:26:23;1.70;1.00
29353;DHT22;16344;50.364;8.944;2023-03-01T01:28:50;1.80;1.00
29353;DHT22;16344;50.364;8.944;2023-03-01T01:31:16;1.70;1.00
29353;DHT22;16344;50.364;8.944;2023-03-01T01:33:42;1.70;1.00
29353;DHT22;16344;50.364;8.944;2023-03-01T01:36:09;1.70;1.00
29353;DHT22;16344;50.364;8.944;2023-03-01T01:38:36;1.60;1.00
29353;DHT22;16344;50.364;8.944;2023-03-01T01:41:03;1.60;1.00
29353;DHT22;16344;50.364;8.944;2023-03-01T01:43:35;1.50;1.00
29353;DHT22;16344;50.364;8.944;2023-03-01T01:46:44;1.50;1.00
29353;DHT22;16344;50.364;8.944;2023-03-01T01:48:58;1.50;1.00
29353;DHT22;16344;50.364;8.944;2023-03-01T01:51:29;1.40;1.00
29353;DHT22;16344;50.364;8.944;2023-03-01T01:54:15;1.40;1.00
29353;DHT22;16344;50.364;8.944;2023-03-01T01:56:44;1.40;1.00
29353;DHT22;16344;50.364;8.944;2023-03-01T01:59:12;1.40;1.00
29353;DHT22;16344;50.364;8.944;2023-03-01T02:01:37;1.40;1.00
29353;DHT22;16344;50.364;8.944;2023-03-01T02:04:03;1.20;1.00
29353;DHT22;16344;50.364;8.944;2023-03-01T02:06:34;1.10;1.00
29353;DHT22;16344;50.364;8.944;2023-03-01T02:09:11;1.00;1.00
29353;DHT22;16344;50.364;8.944;2023-03-01T02:11:37;1.10;1.00
29353;DHT22;16344;50.364;8.944;2023-03-01T02:14:03;1.10;1.00
29353;DHT22;16344;50.364;8.944;2023-03-01T02:16:29;1.10;1.00
29353;DHT22;16344;50.364;8.944;2023-03-01T02:18:56;1.10;1.00
29353;DHT22;16344;50.364;8.944;2023-03-01T02:21:56;1.10;1.00
29353;DHT22;16344;50.364;8.944;2023-03-01T02:24:37;1.10;1.00
29353;DHT22;16344;50.364;8.944;2023-03-01T02:27:06;1.10;1.00
29353;DHT22;16344;50.364;8.944;2023-03-01T02:29:32;1.10;1.00
29353;DHT22;16344;50.364;8.944;2023-03-01T02:31:59;1.00;1.00
29353;DHT22;16344;50.364;8.944;2023-03-01T02:34:26;1.00;1.00
29353;DHT22;16344;50.364;8.944;2023-03-01T02:37:07;1.00;1.00
29353;DHT22;16344;50.364;8.944;2023-03-01T02:39:39;1.00;1.00
29353;DHT22;16344;50.364;8.944;2023-03-01T02:42:11;0.90;1.00
29353;DHT22;16344;50.364;8.944;2023-03-01T02:44:37;0.90;1.00
29353;DHT22;16344;50.364;8.944;2023-03-01T02:47:04;0.90;12.60
29353;DHT22;16344;50.364;8.944;2023-03-01T02:49:32;1.00;8.80
29353;DHT22;16344;50.364;8.944;2023-03-01T02:57:38;1.00;10.30
29353;DHT22;16344;50.364;8.944;2023-03-01T03:00:08;0.90;21.30
29353;DHT22;16344;50.364;8.944;2023-03-01T03:02:35;0.90;16.40
29353;DHT22;16344;50.364;8.944;2023-03-01T03:05:09;0.90;29.70
29353;DHT22;16344;50.364;8.944;2023-03-01T03:07:37;0.90;24.50
29353;DHT22;16344;50.364;8.944;2023-03-01T03:10:05;0.80;28.10
29353;DHT22;16344;50.364;8.944;2023-03-01T03:12:31;0.70;49.30
29353;DHT22;16344;50.364;8.944;2023-03-01T03:14:57;0.60;47.40
29353;DHT22;16344;50.364;8.944;2023-03-01T03:17:22;0.60;62.80
29353;DHT22;16344;50.364;8.944;2023-03-01T03:19:48;0.60;61.70
29353;DHT22;16344;50.364;8.944;2023-03-01T03:22:14;0.60;59.80
29353;DHT22;16344;50.364;8.944;2023-03-01T03:24:39;0.60;64.30
29353;DHT22;16344;50.364;8.944;2023-03-01T03:27:06;0.60;53.00
29353;DHT22;16344;50.364;8.944;2023-03-01T03:29:32;0.60;76.80
29353;DHT22;16344;50.364;8.944;2023-03-01T03:31:58;0.50;60.00
29353;DHT22;16344;50.364;8.944;2023-03-01T03:34:24;0.50;65.50
29353;DHT22;16344;50.364;8.944;2023-03-01T03:36:54;0.50;60.80
29353;DHT22;16344;50.364;8.944;2023-03-01T03:39:25;0.50;63.30
29353;DHT22;16344;50.364;8.944;2023-03-01T03:41:51;0.50;61.80
29353;DHT22;16344;50.364;8.944;2023-03-01T03:44:16;0.50;55.60
29353;DHT22;16344;50.364;8.944;2023-03-01T03:46:42;0.50;52.70
29353;DHT22;16344;50.364;8.944;2023-03-01T03:49:07;0.50;57.70
29353;DHT22;16344;50.364;8.944;2023-03-01T03:51:33;0.50;60.20
29353;DHT22;16344;50.364;8.944;2023-03-01T03:53:58;0.40;72.80
29353;DHT22;16344;50.364;8.944;2023-03-01T03:56:24;0.40;66.60
29353;DHT22;16344;50.364;8.944;2023-03-01T03:58:51;0.40;70.50
29353;DHT22;16344;50.364;8.944;2023-03-01T04:01:17;0.50;64.50
29353;DHT22;16344;50.364;8.944;2023-03-01T04:03:43;0.50;55.80
29353;DHT22;16344;50.364;8.944;2023-03-01T04:06:12;0.50;58.40
29353;DHT22;16344;50.364;8.944;2023-03-01T04:08:38;0.50;62.60
29353;DHT22;16344;50.364;8.944;2023-03-01T04:11:05;0.60;47.90
29353;DHT22;16344;50.364;8.944;2023-03-01T04:13:50;0.60;35.70
29353;DHT22;16344;50.364;8.944;2023-03-01T04:16:17;0.70;29.50
29353;DHT22;16344;50.364;8.944;2023-03-01T04:18:43;0.70;27.20
29353;DHT22;16344;50.364;8.944;2023-03-01T04:21:09;0.60;42.40
29353;DHT22;16344;50.364;8.944;2023-03-01T04:23:35;0.60;32.20
29353;DHT22;16344;50.364;8.944;2023-03-01T04:26:01;0.60;38.10
29353;DHT22;16344;50.364;8.944;2023-03-01T04:28:35;0.60;50.80
29353;DHT22;16344;50.364;8.944;2023-03-01T04:31:11;0.70;33.20
29353;DHT22;16344;50.364;8.944;2023-03-01T04:33:51;0.60;18.80
29353;DHT22;16344;50.364;8.944;2023-03-01T04:36:18;0.70;33.20
29353;DHT22;16344;50.364;8.944;2023-03-01T04:38:44;0.70;38.70
29353;DHT22;16344;50.364;8.944;2023-03-01T04:41:13;0.70;30.40
29353;DHT22;16344;50.364;8.944;2023-03-01T04:43:39;0.80;32.50
29353;DHT22;16344;50.364;8.944;2023-03-01T04:46:08;0.70;27.80
29353;DHT22;16344;50.364;8.944;2023-03-01T04:48:36;0.70;29.20
29353;DHT22;16344;50.364;8.944;2023-03-01T04:51:02;0.60;42.80
29353;DHT22;16344;50.364;8.944;2023-03-01T04:53:28;0.60;28.70
29353;DHT22;16344;50.364;8.944;2023-03-01T04:55:55;0.60;26.70
29353;DHT22;16344;50.364;8.944;2023-03-01T04:58:23;0.50;29.20
29353;DHT22;16344;50.364;8.944;2023-03-01T05:00:49;0.50;46.90
29353;DHT22;16344;50.364;8.944;2023-03-01T05:03:15;0.50;46.60
29353;DHT22;16344;50.364;8.944;2023-03-01T05:05:44;0.50;45.70
29353;DHT22;16344;50.364;8.944;2023-03-01T05:08:10;0.50;54.80
29353;DHT22;16344;50.364;8.944;2023-03-01T05:10:44;0.50;65.70
29353;DHT22;16344;50.364;8.944;2023-03-01T05:13:11;0.40;83.60
29353;DHT22;16344;50.364;8.944;2023-03-01T05:15:38;0.40;99.90
29353;DHT22;16344;50.364;8.944;2023-03-01T05:18:04;0.30;99.50
29353;DHT22;16344;50.364;8.944;2023-03-01T05:20:36;0.40;99.90
29353;DHT22;16344;50.364;8.944;2023-03-01T05:23:02;0.40;98.30
29353;DHT22;16344;50.364;8.944;2023-03-01T05:25:31;0.40;72.30
29353;DHT22;16344;50.364;8.944;2023-03-01T05:27:58;0.50;49.20
29353;DHT22;16344;50.364;8.944;2023-03-01T05:30:24;0.60;49.60
29353;DHT22;16344;50.364;8.944;2023-03-01T05:32:51;0.70;12.60
29353;DHT22;16344;50.364;8.944;2023-03-01T05:35:21;0.80;6.60
29353;DHT22;16344;50.364;8.944;2023-03-01T05:37:48;0.80;1.00
29353;DHT22;16344;50.364;8.944;2023-03-01T05:40:17;0.80;6.70
29353;DHT22;16344;50.364;8.944;2023-03-01T05:42:53;0.80;2.20
29353;DHT22;16344;50.364;8.944;2023-03-01T05:45:20;0.80;1.00
29353;DHT22;16344;50.364;8.944;2023-03-01T05:47:48;0.80;1.00
29353;DHT22;16344;50.364;8.944;2023-03-01T05:52:40;0.80;3.30
29353;DHT22;16344;50.364;8.944;2023-03-01T05:55:06;0.80;9.40
29353;DHT22;16344;50.364;8.944;2023-03-01T05:57:31;0.70;7.70
29353;DHT22;16344;50.364;8.944;2023-03-01T05:59:57;0.70;30.30
29353;DHT22;16344;50.364;8.944;2023-03-01T06:02:22;0.80;21.10
29353;DHT22;16344;50.364;8.944;2023-03-01T06:04:48;0.80;8.40
29353;DHT22;16344;50.364;8.944;2023-03-01T06:07:13;0.80;14.90
29353;DHT22;16344;50.364;8.944;2023-03-01T06:09:39;0.80;11.20
29353;DHT22;16344;50.364;8.944;2023-03-01T06:12:05;0.90;1.00
29353;DHT22;16344;50.364;8.944;2023-03-01T06:14:30;0.80;8.70
29353;DHT22;16344;50.364;8.944;2023-03-01T06:16:56;0.80;13.20
29353;DHT22;16344;50.364;8.944;2023-03-01T06:19:21;0.90;11.30
29353;DHT22;16344;50.364;8.944;2023-03-01T06:21:47;1.00;4.50
29353;DHT22;16344;50.364;8.944;2023-03-01T06:24:12;1.20;1.00
29353;DHT22;16344;50.364;8.944;2023-03-01T06:26:38;1.40;1.00
29353;DHT22;16344;50.364;8.944;2023-03-01T06:29:03;1.70;1.00
29353;DHT22;16344;50.364;8.944;2023-03-01T06:31:29;2.20;1.00
29353;DHT22;16344;50.364;8.944;2023-03-01T06:33:54;2.80;1.00
29353;DHT22;16344;50.364;8.944;2023-03-01T06:36:20;3.00;1.00
29353;DHT22;16344;50.364;8.944;2023-03-01T06:38:47;2.80;1.00
29353;DHT22;16344;50.364;8.944;2023-03-01T06:41:12;2.60;1.00
29353;DHT22;16344;50.364;8.944;2023-03-01T06:43:38;2.40;1.00
29353;DHT22;16344;50.364;8.944;2023-03-01T06:46:05;2.10;1.00
29353;DHT22;16344;50.364;8.944;2023-03-01T06:48:32;1.90;1.00
29353;DHT22;16344;50.364;8.944;2023-03-01T06:50:59;1.80;1.00
29353;DHT22;16344;50.364;8.944;2023-03-01T06:53:26;1.70;1.00
29353;DHT22;16344;50.364;8.944;2023-03-01T06:55:58;1.60;1.00
29353;DHT22;16344;50.364;8.944;2023-03-01T06:58:25;1.50;1.00
29353;DHT22;16344;50.364;8.944;2023-03-01T07:00:51;1.40;1.00
29353;DHT22;16344;50.364;8.944;2023-03-01T07:03:16;1.50;1.00
29353;DHT22;16344;50.364;8.944;2023-03-01T07:05:42;1.40;1.00
29353;DHT22;16344;50.364;8.944;2023-03-01T07:08:08;1.50;1.00
29353;DHT22;16344;50.364;8.944;2023-03-01T07:10:33;2.00;1.00
29353;DHT22;16344;50.364;8.944;2023-03-01T07:12:59;2.60;1.00
29353;DHT22;16344;50.364;8.944;2023-03-01T07:15:25;3.00;1.00
29353;DHT22;16344;50.364;8.944;2023-03-01T07:17:51;3.20;1.00
29353;DHT22;16344;50.364;8.944;2023-03-01T07:20:18;3.30;1.00
29353;DHT22;16344;50.364;8.944;2023-03-01T07:22:44;3.50;1.00
29353;DHT22;16344;50.364;8.944;2023-03-01T07:25:10;3.90;1.00
29353;DHT22;16344;50.364;8.944;2023-03-01T07:27:36;4.20;1.00
29353;DHT22;16344;50.364;8.944;2023-03-01T07:30:02;4.50;1.00
29353;DHT22;16344;50.364;8.944;2023-03-01T07:32:28;4.70;1.00
29353;DHT22;16344;50.364;8.944;2023-03-01T07:34:53;4.80;1.00
29353;DHT22;16344;50.364;8.944;2023-03-01T07:37:19;4.80;1.00
29353;DHT22;16344;50.364;8.944;2023-03-01T07:39:45;4.90;1.00
29353;DHT22;16344;50.364;8.944;2023-03-01T07:42:11;5.00;1.00
29353;DHT22;16344;50.364;8.944;2023-03-01T07:44:36;4.90;1.00
29353;DHT22;16344;50.364;8.944;2023-03-01T07:47:03;4.80;1.00
29353;DHT22;16344;50.364;8.944;2023-03-01T07:49:29;4.90;1.00
29353;DHT22;16344;50.364;8.944;2023-03-01T07:51:54;4.90;1.00
29353;DHT22;16344;50.364;8.944;2023-03-01T07:54:20;4.50;1.00
29353;DHT22;16344;50.364;8.944;2023-03-01T07:56:46;4.40;1.00
29353;DHT22;16344;50.364;8.944;2023-03-01T07:59:11;4.40;1.00
29353;DHT22;16344;50.364;8.944;2023-03-01T08:01:37;4.30;1.00
29353;DHT22;16344;50.364;8.944;2023-03-01T08:04:04;4.30;1.00
29353;DHT22;16344;50.364;8.944;2023-03-01T08:06:34;4.30;1.00
29353;DHT22;16344;50.364;8.944;2023-03-01T08:09:01;4.40;1.00
29353;DHT22;16344;50.364;8.944;2023-03-01T08:11:27;4.50;1.00
29353;DHT22;16344;50.364;8.944;2023-03-01T08:13:55;4.50;1.00
29353;DHT22;16344;50.364;8.944;2023-03-01T08:16:24;4.50;1.00
29353;DHT22;16344;50.364;8.944;2023-03-01T08:18:50;4.70;1.00
29353;DHT22;16344;50.364;8.944;2023-03-01T08:21:18;4.80;1.00
29353;DHT22;16344;50.364;8.944;2023-03-01T08:23:45;5.10;1.00
29353;DHT22;16344;50.364;8.944;2023-03-01T08:26:14;5.10;1.00
29353;DHT22;16344;50.364;8.944;2023-03-01T08:28:41;4.90;1.00
29353;DHT22;16344;50.364;8.944;2023-03-01T08:31:19;5.00;1.00
29353;DHT22;16344;50.364;8.944;2023-03-01T08:33:46;5.10;1.00
29353;DHT22;16344;50.364;8.944;2023-03-01T08:36:20;5.30;1.00
29353;DHT22;16344;50.364;8.944;2023-03-01T08:38:46;5.30;1.00
29353;DHT22;16344;50.364;8.944;2023-03-01T08:41:12;5.50;1.00
29353;DHT22;16344;50.364;8.944;2023-03-01T08:43:38;5.50;1.00
29353;DHT22;16344;50.364;8.944;2023-03-01T08:46:04;5.50;1.00
29353;DHT22;16344;50.364;8.944;2023-03-01T08:48:29;5.60;1.00
29353;DHT22;16344;50.364;8.944;2023-03-01T08:50:55;5.30;1.00
29353;DHT22;16344;50.364;8.944;2023-03-01T08:53:21;5.50;1.00
29353;DHT22;16344;50.364;8.944;2023-03-01T08:55:47;5.60;1.00
29353;DHT22;16344;50.364;8.944;2023-03-01T08:58:13;5.70;1.00
29353;DHT22;16344;50.364;8.944;2023-03-01T09:00:39;5.70;1.00
29353;DHT22;16344;50.364;8.944;2023-03-01T09:03:07;5.70;1.00
29353;DHT22;16344;50.364;8.944;2023-03-01T09:05:33;5.60;1.00
29353;DHT22;16344;50.364;8.944;2023-03-01T09:07:59;5.70;1.00
29353;DHT22;16344;50.364;8.944;2023-03-01T09:10:25;5.80;1.00
29353;DHT22;16344;50.364;8.944;2023-03-01T09:12:51;6.00;1.00
29353;DHT22;16344;50.364;8.944;2023-03-01T09:15:16;5.90;1.00
29353;DHT22;16344;50.364;8.944;2023-03-01T09:17:42;6.00;1.00
29353;DHT22;16344;50.364;8.944;2023-03-01T09:20:08;5.90;1.00
29353;DHT22;16344;50.364;8.944;2023-03-01T09:22:34;5.90;1.00
29353;DHT22;16344;50.364;8.944;2023-03-01T09:25:00;5.90;1.00
29353;DHT22;16344;50.364;8.944;2023-03-01T09:27:26;6.00;1.00
29353;DHT22;16344;50.364;8.944;2023-03-01T09:29:53;6.00;1.00
29353;DHT22;16344;50.364;8.944;2023-03-01T09:32:18;6.30;1.00
29353;DHT22;16344;50.364;8.944;2023-03-01T09:34:44;6.40;1.00
29353;DHT22;16344;50.364;8.944;2023-03-01T09:37:33;6.60;1.00
29353;DHT22;16344;50.364;8.944;2023-03-01T09:39:58;6.50;1.00
29353;DHT22;16344;50.364;8.944;2023-03-01T09:42:24;6.50;1.00
29353;DHT22;16344;50.364;8.944;2023-03-01T09:47:35;6.80;1.00
29353;DHT22;16344;50.364;8.944;2023-03-01T09:50:06;6.60;1.00
29353;DHT22;16344;50.364;8.944;2023-03-01T09:53:01;6.70;1.00
29353;DHT22;16344;50.364;8.944;2023-03-01T09:58:04;6.70;1.00
29353;DHT22;16344;50.364;8.944;2023-03-01T10:03:14;6.80;1.00
29353;DHT22;16344;50.364;8.944;2023-03-01T10:06:01;6.80;1.00
29353;DHT22;16344;50.364;8.944;2023-03-01T10:08:43;7.00;1.00
29353;DHT22;16344;50.364;8.944;2023-03-01T10:11:38;7.20;1.00
29353;DHT22;16344;50.364;8.944;2023-03-01T10:19:58;7.30;1.00
29353;DHT22;16344;50.364;8.944;2023-03-01T10:22:36;7.40;1.00
29353;DHT22;16344;50.364;8.944;2023-03-01T10:25:03;7.50;1.00
29353;DHT22;16344;50.364;8.944;2023-03-01T10:27:46;7.40;1.00
29353;DHT22;16344;50.364;8.944;2023-03-01T10:30:34;7.30;1.00
29353;DHT22;16344;50.364;8.944;2023-03-01T10:33:02;7.30;1.00
29353;DHT22;16344;50.364;8.944;2023-03-01T10:35:31;7.20;1.00
29353;DHT22;16344;50.364;8.944;2023-03-01T10:40:23;7.20;1.00
29353;DHT22;16344;50.364;8.944;2023-03-01T10:42:49;7.30;1.00
29353;DHT22;16344;50.364;8.944;2023-03-01T10:47:41;7.40;1.00
29353;DHT22;16344;50.364;8.944;2023-03-01T10:50:19;7.30;1.00
29353;DHT22;16344;50.364;8.944;2023-03-01T10:53:00;7.30;1.00
29353;DHT22;16344;50.364;8.944;2023-03-01T10:55:39;7.60;1.00
29353;DHT22;16344;50.364;8.944;2023-03-01T11:05:57;7.40;1.00
29353;DHT22;16344;50.364;8.944;2023-03-01T11:13:35;7.60;1.00
29353;DHT22;16344;50.364;8.944;2023-03-01T11:16:07;7.80;1.00
29353;DHT22;16344;50.364;8.944;2023-03-01T11:18:35;8.00;1.00
29353;DHT22;16344;50.364;8.944;2023-03-01T11:21:01;8.00;1.00
29353;DHT22;16344;50.364;8.944;2023-03-01T11:23:29;8.10;1.00
29353;DHT22;16344;50.364;8.944;2023-03-01T11:25:58;8.20;1.00
29353;DHT22;16344;50.364;8.944;2023-03-01T11:28:26;8.20;1.00
29353;DHT22;16344;50.364;8.944;2023-03-01T11:31:03;8.20;1.00
29353;DHT22;16344;50.364;8.944;2023-03-01T11:36:28;7.90;1.00
29353;DHT22;16344;50.364;8.944;2023-03-01T11:38:55;7.80;1.00
29353;DHT22;16344;50.364;8.944;2023-03-01T11:41:25;7.70;1.00
29353;DHT22;16344;50.364;8.944;2023-03-01T11:49:46;7.80;1.00
29353;DHT22;16344;50.364;8.944;2023-03-01T11:54:56;7.90;1.00
29353;DHT22;16344;50.364;8.944;2023-03-01T12:00:36;8.40;1.00
29353;DHT22;16344;50.364;8.944;2023-03-01T12:09:30;8.80;1.00
29353;DHT22;16344;50.364;8.944;2023-03-01T12:14:59;9.00;1.00
29353;DHT22;16344;50.364;8.944;2023-03-01T12:20:25;9.00;1.00
29353;DHT22;16344;50.364;8.944;2023-03-01T12:25:53;9.30;1.00
29353;DHT22;16344;50.364;8.944;2023-03-01T12:28:44;9.30;1.00
29353;DHT22;16344;50.364;8.944;2023-03-01T12:31:21;9.30;1.00
29353;DHT22;16344;50.364;8.944;2023-03-01T12:36:38;9.10;1.00
29353;DHT22;16344;50.364;8.944;2023-03-01T12:48:20;9.50;1.00
29353;DHT22;16344;50.364;8.944;2023-03-01T12:50:21;9.50;1.00
29353;DHT22;16344;50.364;8.944;2023-03-01T12:52:52;9.50;1.00
29353;DHT22;16344;50.364;8.944;2023-03-01T12:55:37;9.40;1.00
29353;DHT22;16344;50.364;8.944;2023-03-01T13:00:39;9.50;1.00
29353;DHT22;16344;50.364;8.944;2023-03-01T13:03:22;9.60;1.00
29353;DHT22;16344;50.364;8.944;2023-03-01T13:06:15;9.60;1.00
29353;DHT22;16344;50.364;8.944;2023-03-01T13:09:01;9.60;1.00
29353;DHT22;16344;50.364;8.944;2023-03-01T13:11:30;9.50;1.00
29353;DHT22;16344;50.364;8.944;2023-03-01T13:16:47;9.60;1.00
29353;DHT22;16344;50.364;8.944;2023-03-01T13:19:28;9.50;1.00
29353;DHT22;16344;50.364;8.944;2023-03-01T13:22:28;9.40;1.00
29353;DHT22;16344;50.364;8.944;2023-03-01T13:25:22;9.40;1.00
29353;DHT22;16344;50.364;8.944;2023-03-01T13:27:48;9.40;1.00
29353;DHT22;16344;50.364;8.944;2023-03-01T13:35:53;9.20;1.00
29353;DHT22;16344;50.364;8.944;2023-03-01T13:38:44;9.10;1.00
29353;DHT22;16344;50.364;8.944;2023-03-01T13:41:12;9.10;1.00
29353;DHT22;16344;50.364;8.944;2023-03-01T13:43:41;9.20;1.00
29353;DHT22;16344;50.364;8.944;2023-03-01T13:46:22;9.10;1.00
29353;DHT22;16344;50.364;8.944;2023-03-01T13:48:52;9.00;1.00
29353;DHT22;16344;50.364;8.944;2023-03-01T13:51:26;8.80;1.00
29353;DHT22;16344;50.364;8.944;2023-03-01T13:53:54;8.70;1.00
29353;DHT22;16344;50.364;8.944;2023-03-01T13:56:27;8.70;1.00
29353;DHT22;16344;50.364;8.944;2023-03-01T14:01:37;8.80;1.00
29353;DHT22;16344;50.364;8.944;2023-03-01T14:04:17;8.80;1.00
29353;DHT22;16344;50.364;8.944;2023-03-01T14:06:43;8.70;1.00
29353;DHT22;16344;50.364;8.944;2023-03-01T14:09:18;8.80;1.00
29353;DHT22;16344;50.364;8.944;2023-03-01T14:17:38;8.60;1.00
29353;DHT22;16344;50.364;8.944;2023-03-01T14:20:23;8.40;1.00
29353;DHT22;16344;50.364;8.944;2023-03-01T14:22:50;8.30;1.00
29353;DHT22;16344;50.364;8.944;2023-03-01T14:27:52;8.40;1.00
29353;DHT22;16344;50.364;8.944;2023-03-01T14:30:23;8.40;1.00
29353;DHT22;16344;50.364;8.944;2023-03-01T14:32:56;8.30;1.00
29353;DHT22;16344;50.364;8.944;2023-03-01T14:35:34;8.30;1.00
29353;DHT22;16344;50.364;8.944;2023-03-01T14:38:00;8.20;1.00
29353;DHT22;16344;50.364;8.944;2023-03-01T14:40:28;8.10;1.00
29353;DHT22;16344;50.364;8.944;2023-03-01T14:43:00;8.00;1.00
29353;DHT22;16344;50.364;8.944;2023-03-01T14:45:29;7.90;1.00
29353;DHT22;16344;50.364;8.944;2023-03-01T14:47:59;7.90;1.00
29353;DHT22;16344;50.364;8.944;2023-03-01T14:50:28;7.90;1.00
29353;DHT22;16344;50.364;8.944;2023-03-01T14:52:57;7.90;1.00
29353;DHT22;16344;50.364;8.944;2023-03-01T14:55:31;7.90;1.00
29353;DHT22;16344;50.364;8.944;2023-03-01T14:57:58;7.90;1.00
29353;DHT22;16344;50.364;8.944;2023-03-01T15:00:26;7.90;1.00
29353;DHT22;16344;50.364;8.944;2023-03-01T15:02:54;7.90;1.00
29353;DHT22;16344;50.364;8.944;2023-03-01T15:05:26;7.80;1.00
29353;DHT22;16344;50.364;8.944;2023-03-01T15:07:53;7.70;1.00
29353;DHT22;16344;50.364;8.944;2023-03-01T15:10:25;7.70;1.00
29353;DHT22;16344;50.364;8.944;2023-03-01T15:12:50;7.70;1.00
29353;DHT22;16344;50.364;8.944;2023-03-01T15:18:22;7.60;1.00
29353;DHT22;16344;50.364;8.944;2023-03-01T15:20:51;7.50;1.00
29353;DHT22;16344;50.364;8.944;2023-03-01T15:23:24;7.40;1.00
29353;DHT22;16344;50.364;8.944;2023-03-01T15:25:51;7.30;1.00
29353;DHT22;16344;50.364;8.944;2023-03-01T15:28:31;7.20;1.00
29353;DHT22;16344;50.364;8.944;2023-03-01T15:31:16;7.20;1.00
29353;DHT22;16344;50.364;8.944;2023-03-01T15:33:43;7.00;1.00
29353;DHT22;16344;50.364;8.944;2023-03-01T15:38:57;6.90;1.00
29353;DHT22;16344;50.364;8.944;2023-03-01T15:41:46;7.00;1.00
29353;DHT22;16344;50.364;8.944;2023-03-01T15:44:26;7.00;1.00
29353;DHT22;16344;50.364;8.944;2023-03-01T15:46:52;6.90;1.00
29353;DHT22;16344;50.364;8.944;2023-03-01T15:49:30;6.90;1.00
29353;DHT22;16344;50.364;8.944;2023-03-01T15:51:58;6.90;1.00
29353;DHT22;16344;50.364;8.944;2023-03-01T15:54:25;7.00;1.00
29353;DHT22;16344;50.364;8.944;2023-03-01T15:56:51;7.20;1.00
29353;DHT22;16344;50.364;8.944;2023-03-01T15:59:17;7.20;1.00
29353;DHT22;16344;50.364;8.944;2023-03-01T16:01:44;7.30;1.00
29353;DHT22;16344;50.364;8.944;2023-03-01T16:04:14;7.30;1.00
29353;DHT22;16344;50.364;8.944;2023-03-01T16:06:54;7.40;1.00
29353;DHT22;16344;50.364;8.944;2023-03-01T16:09:22;7.30;1.00
29353;DHT22;16344;50.364;8.944;2023-03-01T16:11:48;7.30;1.00
29353;DHT22;16344;50.364;8.944;2023-03-01T16:14:14;7.40;1.00
29353;DHT22;16344;50.364;8.944;2023-03-01T16:16:41;7.40;1.00
29353;DHT22;16344;50.364;8.944;2023-03-01T16:19:07;7.30;1.00
29353;DHT22;16344;50.364;8.944;2023-03-01T16:21:32;7.30;1.00
29353;DHT22;16344;50.364;8.944;2023-03-01T16:23:58;7.20;1.00
29353;DHT22;16344;50.364;8.944;2023-03-01T16:26:23;7.10;1.00
29353;DHT22;16344;50.364;8.944;2023-03-01T16:28:49;7.00;1.00
29353;DHT22;16344;50.364;8.944;2023-03-01T16:31:18;7.00;1.00
29353;DHT22;16344;50.364;8.944;2023-03-01T16:33:44;7.00;1.00
29353;DHT22;16344;50.364;8.944;2023-03-01T16:36:15;6.90;1.00
29353;DHT22;16344;50.364;8.944;2023-03-01T16:38:41;6.80;1.00
29353;DHT22;16344;50.364;8.944;2023-03-01T16:41:11;6.80;1.00
29353;DHT22;16344;50.364;8.944;2023-03-01T16:43:37;6.90;1.00
29353;DHT22;16344;50.364;8.944;2023-03-01T16:46:10;6.80;1.00
29353;DHT22;16344;50.364;8.944;2023-03-01T16:48:36;6.80;1.00
29353;DHT22;16344;50.364;8.944;2023-03-01T16:51:01;6.70;1.00
29353;DHT22;16344;50.364;8.944;2023-03-01T16:53:28;6.60;1.00
29353;DHT22;16344;50.364;8.944;2023-03-01T16:55:57;6.60;1.00
29353;DHT22;16344;50.364;8.944;2023-03-01T16:58:24;6.60;1.00
29353;DHT22;16344;50.364;8.944;2023-03-01T17:00:53;6.70;1.00
29353;DHT22;16344;50.364;8.944;2023-03-01T17:03:21;6.60;1.00
29353;DHT22;16344;50.364;8.944;2023-03-01T17:05:47;6.60;1.00
29353;DHT22;16344;50.364;8.944;2023-03-01T17:08:12;6.50;1.00
29353;DHT22;16344;50.364;8.944;2023-03-01T17:10:38;6.60;1.00
29353;DHT22;16344;50.364;8.944;2023-03-01T17:13:04;6.50;1.00
29353;DHT22;16344;50.364;8.944;2023-03-01T17:15:29;6.50;1.00
29353;DHT22;16344;50.364;8.944;2023-03-01T17:17:55;6.40;1.00
29353;DHT22;16344;50.364;8.944;2023-03-01T17:20:20;6.30;1.00
29353;DHT22;16344;50.364;8.944;2023-03-01T17:22:46;6.30;1.00
29353;DHT22;16344;50.364;8.944;2023-03-01T17:25:11;6.30;1.00
29353;DHT22;16344;50.364;8.944;2023-03-01T17:27:37;6.20;1.00
29353;DHT22;16344;50.364;8.944;2023-03-01T17:30:05;6.10;1.00
29353;DHT22;16344;50.364;8.944;2023-03-01T17:32:31;6.10;1.00
29353;DHT22;16344;50.364;8.944;2023-03-01T17:34:56;5.80;1.00
29353;DHT22;16344;50.364;8.944;2023-03-01T17:37:22;5.80;1.00
29353;DHT22;16344;50.364;8.944;2023-03-01T17:39:47;5.90;1.00
29353;DHT22;16344;50.364;8.944;2023-03-01T17:42:13;5.90;1.00
29353;DHT22;16344;50.364;8.944;2023-03-01T17:44:38;5.80;1.00
29353;DHT22;16344;50.364;8.944;2023-03-01T17:47:04;5.70;1.00
29353;DHT22;16344;50.364;8.944;2023-03-01T17:49:30;5.60;1.00
29353;DHT22;16344;50.364;8.944;2023-03-01T17:51:56;5.50;1.00
29353;DHT22;16344;50.364;8.944;2023-03-01T17:54:22;5.50;1.00
29353;DHT22;16344;50.364;8.944;2023-03-01T17:56:48;5.40;1.00
29353;DHT22;16344;50.364;8.944;2023-03-01T17:59:13;5.30;1.00